Time;durP1;ratioP1;P1;durP2;ratioP2;P2;SDS_P1;SDS_P2;PMS_P1;PMS_P2;Temp;Humidity;BMP_temperature;BMP_pressure;BME280_temperature;BME280_humidity;BME280_pressure;Samples;Min_cycle;Max_cycle;Signal;HPM_P1;HPM_P2
2021/09/30 00:00:56;;;;;;;12.02;9.02;;;10.60;81.70;;;;;;5056527;28;20078;-85
2021/09/30 00:03:22;;;;;;;10.73;8.55;;;10.60;81.50;;;;;;5074392;28;20032;-85
2021/09/30 00:05:48;;;;;;;11.90;8.50;;;10.60;81.10;;;;;;5056087;28;20036;-84
2021/09/30 00:08:13;;;;;;;12.30;9.13;;;10.60;80.70;;;;;;5075260;28;20474;-84
2021/09/30 00:10:45;;;;;;;19.58;17.52;;;10.60;80.40;;;;;;5073962;28;20401;-85
2021/09/30 00:34:48;;;;;;;12.95;11.45;;;10.60;79.60;;;;;;5073873;28;20043;-85
2021/09/30 00:45:42;;;;;;;15.32;13.00;;;10.70;80.40;;;;;;5074097;28;20070;-83
2021/09/30 01:33:31;;;;;;;6.80;5.55;;;10.80;74.40;;;;;;5057338;28;20370;-84
2021/09/30 02:19:22;;;;;;;39.00;32.40;;;10.70;77.40;;;;;;5096383;28;20477;-84
2021/09/30 03:00:08;;;;;;;23.88;19.55;;;10.50;79.70;;;;;;5095400;28;20035;-85
2021/09/30 03:02:39;;;;;;;25.33;19.77;;;10.50;80.00;;;;;;5076928;28;20028;-85
2021/09/30 03:05:05;;;;;;;26.98;19.20;;;10.50;80.30;;;;;;5077476;28;20028;-85
2021/09/30 03:07:32;;;;;;;20.33;16.65;;;10.50;80.50;;;;;;5070147;28;20045;-85
2021/09/30 03:09:59;;;;;;;25.20;18.83;;;10.50;80.50;;;;;;5075125;28;20036;-85
2021/09/30 03:15:08;;;;;;;19.70;15.93;;;10.50;80.30;;;;;;5086117;28;20047;-85
2021/09/30 03:23:10;;;;;;;21.08;16.25;;;10.50;80.20;;;;;;5094801;28;20505;-85
2021/09/30 03:25:37;;;;;;;14.63;12.75;;;10.60;80.10;;;;;;5077348;28;20055;-85
2021/09/30 03:28:04;;;;;;;15.38;11.50;;;10.60;79.90;;;;;;5076710;28;20028;-85
2021/09/30 03:30:31;;;;;;;19.95;11.88;;;10.60;79.30;;;;;;5076540;28;20059;-86
2021/09/30 03:33:02;;;;;;;14.68;12.98;;;10.60;78.80;;;;;;5094739;28;20084;-86
2021/09/30 03:35:28;;;;;;;17.27;14.05;;;10.70;78.40;;;;;;5074610;28;20061;-87
2021/09/30 03:37:54;;;;;;;11.45;10.13;;;10.60;78.10;;;;;;5094646;28;20047;-84
2021/09/30 03:40:20;;;;;;;13.50;10.93;;;10.70;77.50;;;;;;5076784;28;20028;-83
2021/09/30 03:42:46;;;;;;;13.20;11.13;;;10.70;77.20;;;;;;5076590;28;20537;-83
2021/09/30 03:45:12;;;;;;;15.23;12.85;;;10.70;77.00;;;;;;5076101;28;20524;-83
2021/09/30 03:47:37;;;;;;;15.15;12.45;;;10.70;76.60;;;;;;5076244;28;20119;-83
2021/09/30 03:50:08;;;;;;;17.00;12.82;;;10.70;76.50;;;;;;5094668;28;20035;-84
2021/09/30 04:00:32;;;;;;;14.75;12.15;;;10.70;75.70;;;;;;5094629;28;20123;-85
2021/09/30 04:02:58;;;;;;;21.83;14.68;;;10.70;76.00;;;;;;5094231;28;20099;-84
2021/09/30 04:05:23;;;;;;;23.13;13.65;;;10.70;76.30;;;;;;5094088;28;20054;-84
2021/09/30 04:07:49;;;;;;;18.55;12.98;;;10.70;76.30;;;;;;5075693;28;20052;-84
2021/09/30 04:10:15;;;;;;;23.30;15.73;;;10.80;76.40;;;;;;5094672;28;20454;-84
2021/09/30 04:12:40;;;;;;;21.70;14.93;;;10.80;76.70;;;;;;5093826;28;20024;-84
2021/09/30 04:15:06;;;;;;;21.77;13.68;;;11.00;76.90;;;;;;5074772;28;20075;-84
2021/09/30 04:17:32;;;;;;;22.85;12.20;;;11.30;76.60;;;;;;5075866;28;20024;-83
2021/09/30 04:19:58;;;;;;;20.10;12.48;;;11.50;75.90;;;;;;5076193;28;20050;-83
2021/09/30 04:22:24;;;;;;;21.98;13.68;;;11.70;75.70;;;;;;5075798;28;20454;-84
2021/09/30 04:24:49;;;;;;;21.40;13.90;;;12.00;75.40;;;;;;5075628;28;20028;-83
2021/09/30 04:27:15;;;;;;;21.13;14.30;;;12.10;74.70;;;;;;5093785;28;20081;-83
2021/09/30 04:29:41;;;;;;;16.92;12.35;;;12.10;74.00;;;;;;5093610;28;20028;-84
2021/09/30 04:32:07;;;;;;;22.90;11.20;;;12.10;73.60;;;;;;5075682;28;20035;-83
2021/09/30 04:34:33;;;;;;;18.90;11.60;;;12.00;73.70;;;;;;5071574;28;20036;-84
2021/09/30 04:36:58;;;;;;;21.60;11.02;;;12.00;73.40;;;;;;5055517;28;20032;-83
2021/09/30 04:39:24;;;;;;;19.23;11.10;;;11.90;73.40;;;;;;5055986;28;20025;-82
2021/09/30 04:41:50;;;;;;;17.02;11.55;;;11.70;73.60;;;;;;5073447;28;20063;-83
2021/09/30 04:44:16;;;;;;;16.50;11.18;;;11.50;73.80;;;;;;5057414;28;20031;-83
2021/09/30 04:46:42;;;;;;;16.88;11.13;;;11.40;73.80;;;;;;5059459;28;20447;-83
2021/09/30 04:49:08;;;;;;;13.75;10.10;;;11.30;73.90;;;;;;5059620;28;20074;-79
2021/09/30 04:51:34;;;;;;;12.63;9.38;;;11.20;74.00;;;;;;5077204;28;20478;-80
2021/09/30 04:54:00;;;;;;;13.68;10.85;;;11.10;73.80;;;;;;5077072;28;20421;-85
2021/09/30 04:56:25;;;;;;;14.77;10.27;;;11.10;74.50;;;;;;5058787;28;20059;-70
2021/09/30 04:58:51;;;;;;;13.88;9.68;;;11.10;74.70;;;;;;5059786;28;20060;-85
2021/09/30 05:01:17;;;;;;;13.38;10.00;;;11.00;74.70;;;;;;5059800;28;20020;-86
2021/09/30 05:03:42;;;;;;;15.13;10.35;;;11.00;74.80;;;;;;5060482;28;20035;-84
2021/09/30 05:06:08;;;;;;;16.30;11.52;;;11.00;75.20;;;;;;5077338;28;20200;-81
2021/09/30 05:08:34;;;;;;;15.98;10.57;;;11.00;75.50;;;;;;5077421;28;20025;-84
2021/09/30 05:11:02;;;;;;;12.77;9.80;;;11.10;75.40;;;;;;5060163;28;20043;-89
2021/09/30 05:13:39;;;;;;;12.85;9.82;;;11.30;75.10;;;;;;5082867;28;20024;-83
2021/09/30 05:16:07;;;;;;;13.65;10.32;;;11.40;74.90;;;;;;5038623;28;20212;-83
2021/09/30 05:18:34;;;;;;;11.90;8.63;;;11.90;75.70;;;;;;5039326;28;20028;-86
2021/09/30 05:21:01;;;;;;;12.52;8.30;;;12.80;74.50;;;;;;5056666;28;20032;-77
2021/09/30 05:23:27;;;;;;;14.20;8.35;;;13.50;71.90;;;;;;5056705;28;20025;-78
2021/09/30 05:25:52;;;;;;;12.73;8.38;;;14.20;69.60;;;;;;5059108;28;20093;-77
2021/09/30 05:28:18;;;;;;;12.52;7.63;;;14.80;67.40;;;;;;5077233;28;20028;-77
2021/09/30 05:30:44;;;;;;;13.10;7.45;;;15.10;65.20;;;;;;5077157;28;20062;-77
2021/09/30 05:33:10;;;;;;;11.38;7.32;;;15.40;64.20;;;;;;5059940;28;20025;-77
2021/09/30 05:35:35;;;;;;;11.40;6.45;;;15.70;63.30;;;;;;5076415;28;20497;-77
2021/09/30 05:38:01;;;;;;;7.97;6.40;;;15.90;62.40;;;;;;5076711;28;20421;-77
2021/09/30 05:40:29;;;;;;;8.52;6.32;;;16.20;61.90;;;;;;5076209;28;20102;-77
2021/09/30 05:42:55;;;;;;;9.70;6.78;;;16.40;60.80;;;;;;5058825;28;20029;-76
2021/09/30 05:45:22;;;;;;;10.27;6.22;;;16.50;59.70;;;;;;5058327;28;20033;-76
2021/09/30 05:47:47;;;;;;;8.90;6.93;;;16.60;59.30;;;;;;5076138;28;20024;-77
2021/09/30 05:50:14;;;;;;;10.55;6.68;;;16.70;58.30;;;;;;5058557;28;20077;-77
2021/09/30 05:52:41;;;;;;;10.02;6.57;;;16.70;58.50;;;;;;5076684;28;20413;-77
2021/09/30 05:55:08;;;;;;;11.60;6.85;;;16.90;58.30;;;;;;5057108;28;20578;-77
2021/09/30 05:57:34;;;;;;;12.65;7.15;;;17.20;58.60;;;;;;5076282;28;20032;-77
2021/09/30 06:00:16;;;;;;;14.50;6.20;;;17.60;58.60;;;;;;5076806;28;20024;-76
2021/09/30 06:13:40;;;;;;;16.58;10.77;;;18.80;53.80;;;;;;5075656;28;20035;-77
2021/09/30 06:16:11;;;;;;;12.95;7.65;;;18.70;53.50;;;;;;5075153;28;20039;-76
2021/09/30 06:18:37;;;;;;;9.20;5.60;;;18.50;53.00;;;;;;5058334;28;20028;-77
2021/09/30 06:21:02;;;;;;;12.45;6.05;;;18.40;53.20;;;;;;5075917;28;20127;-77
2021/09/30 06:23:28;;;;;;;8.13;6.03;;;18.40;53.60;;;;;;5077296;28;20031;-78
2021/09/30 06:25:54;;;;;;;9.60;5.53;;;18.50;54.10;;;;;;5087101;28;20024;-79
2021/09/30 06:28:19;;;;;;;11.30;5.68;;;18.60;52.60;;;;;;5057741;28;20021;-87
2021/09/30 06:30:45;;;;;;;10.15;5.70;;;18.60;52.10;;;;;;5058459;28;20123;-84
2021/09/30 06:33:10;;;;;;;11.70;7.47;;;18.70;52.40;;;;;;5075427;28;20386;-87
2021/09/30 06:35:36;;;;;;;9.27;7.13;;;18.80;52.80;;;;;;5076589;28;20035;-86
2021/09/30 06:38:05;;;;;;;8.68;5.53;;;19.20;52.60;;;;;;5060482;28;20364;-76
2021/09/30 06:40:31;;;;;;;9.85;6.40;;;19.60;51.60;;;;;;5057322;28;20035;-81
2021/09/30 06:42:58;;;;;;;8.68;6.47;;;19.90;50.70;;;;;;5073243;28;20462;-82
2021/09/30 06:45:24;;;;;;;13.75;9.57;;;20.10;50.50;;;;;;5074898;28;20086;-79
2021/09/30 06:47:50;;;;;;;12.65;10.32;;;20.40;50.20;;;;;;5064711;28;20032;-81
2021/09/30 06:50:16;;;;;;;11.32;8.15;;;20.40;49.60;;;;;;5056518;28;20048;-83
2021/09/30 06:52:43;;;;;;;10.55;7.53;;;20.50;50.00;;;;;;5056807;28;20025;-84
2021/09/30 06:55:10;;;;;;;13.07;10.05;;;20.60;49.90;;;;;;5073879;28;20090;-87
2021/09/30 06:57:35;;;;;;;13.35;11.70;;;20.80;50.40;;;;;;5075359;28;20102;-84
2021/09/30 07:00:06;;;;;;;9.32;5.57;;;21.20;49.80;;;;;;5051690;28;20025;-82
2021/09/30 07:02:32;;;;;;;11.23;6.88;;;21.30;48.30;;;;;;5058008;28;20028;-82
2021/09/30 07:04:58;;;;;;;11.90;5.57;;;21.40;48.50;;;;;;5088700;28;20540;-83
2021/09/30 07:07:24;;;;;;;10.02;5.88;;;21.60;48.40;;;;;;5076776;28;20048;-84
2021/09/30 07:09:49;;;;;;;10.10;6.80;;;21.70;48.30;;;;;;5079094;28;20039;-85
2021/09/30 07:12:15;;;;;;;8.93;6.60;;;22.10;47.90;;;;;;5098140;28;20027;-83
2021/09/30 07:14:41;;;;;;;14.65;9.65;;;22.20;46.90;;;;;;5070252;28;20131;-82
2021/09/30 07:17:10;;;;;;;17.60;15.80;;;22.30;47.10;;;;;;5060738;28;20083;-79
2021/09/30 07:19:36;;;;;;;18.80;16.80;;;22.60;47.10;;;;;;5086001;28;20028;-84
2021/09/30 07:22:03;;;;;;;7.40;5.68;;;22.90;46.70;;;;;;5077993;28;20032;-82
2021/09/30 07:24:29;;;;;;;9.68;6.13;;;23.30;45.50;;;;;;5077395;28;20459;-84
2021/09/30 07:26:55;;;;;;;10.18;6.10;;;23.40;45.20;;;;;;5060646;28;20534;-84
2021/09/30 07:29:21;;;;;;;8.80;5.95;;;23.50;44.90;;;;;;5078163;28;20056;-84
2021/09/30 07:31:46;;;;;;;6.45;5.28;;;23.60;44.80;;;;;;5060281;28;20462;-79
2021/09/30 07:34:12;;;;;;;6.60;5.10;;;23.70;43.80;;;;;;5059954;28;20031;-83
2021/09/30 07:36:42;;;;;;;7.95;5.50;;;23.50;43.20;;;;;;5059538;28;20034;-82
2021/09/30 07:39:09;;;;;;;7.35;5.28;;;23.30;43.40;;;;;;5075817;28;20025;-84
2021/09/30 07:41:36;;;;;;;7.68;5.25;;;23.30;43.50;;;;;;5057527;28;20031;-84
2021/09/30 07:44:05;;;;;;;7.05;4.97;;;23.30;43.60;;;;;;5077333;28;20111;-82
2021/09/30 07:46:36;;;;;;;9.63;4.97;;;23.50;43.40;;;;;;5077663;28;20021;-83
2021/09/30 07:49:05;;;;;;;12.45;5.85;;;23.80;43.60;;;;;;5077904;28;20021;-84
2021/09/30 07:51:34;;;;;;;7.10;4.70;;;23.90;42.60;;;;;;5078166;28;20033;-87
2021/09/30 07:54:00;;;;;;;6.72;4.65;;;23.80;42.00;;;;;;5078566;28;20033;-83
2021/09/30 07:56:28;;;;;;;5.95;4.22;;;23.70;42.40;;;;;;5076994;28;20481;-83
2021/09/30 07:58:56;;;;;;;10.20;5.75;;;23.80;42.50;;;;;;5077306;28;20028;-83
2021/09/30 08:01:23;;;;;;;15.35;6.93;;;23.90;42.20;;;;;;5058717;28;20024;-83
2021/09/30 08:03:51;;;;;;;16.98;15.38;;;24.20;42.50;;;;;;5076622;28;20036;-83
2021/09/30 08:06:18;;;;;;;11.48;7.80;;;24.70;42.70;;;;;;5059773;28;20044;-84
2021/09/30 08:08:44;;;;;;;15.90;14.38;;;25.10;41.90;;;;;;5058813;28;20029;-84
2021/09/30 08:11:10;;;;;;;16.67;14.90;;;25.50;41.30;;;;;;5059489;28;20033;-82
2021/09/30 08:13:36;;;;;;;16.05;14.35;;;25.50;41.00;;;;;;5060083;28;20024;-82
2021/09/30 08:16:02;;;;;;;11.65;9.77;;;25.60;40.30;;;;;;5059245;28;20029;-82
2021/09/30 08:18:28;;;;;;;7.18;4.38;;;25.80;39.80;;;;;;5058777;28;20044;-82
2021/09/30 08:20:54;;;;;;;10.30;5.07;;;25.90;39.10;;;;;;5058743;28;20024;-82
2021/09/30 08:23:21;;;;;;;7.40;4.85;;;25.90;38.60;;;;;;5058708;28;20059;-82
2021/09/30 08:25:47;;;;;;;14.25;10.90;;;25.70;38.40;;;;;;5058397;28;20459;-78
2021/09/30 08:28:13;;;;;;;7.30;5.60;;;25.90;39.10;;;;;;5076827;28;20082;-77
2021/09/30 08:30:40;;;;;;;9.75;5.30;;;26.10;37.90;;;;;;5039258;28;20021;-83
2021/09/30 08:33:07;;;;;;;8.60;5.55;;;25.80;37.50;;;;;;5035590;28;20028;-78
2021/09/30 08:35:33;;;;;;;6.85;5.00;;;25.80;38.40;;;;;;5056545;28;20094;-82
2021/09/30 08:37:59;;;;;;;7.68;4.18;;;25.80;37.70;;;;;;5038985;28;20451;-83
2021/09/30 08:40:28;;;;;;;7.43;4.70;;;25.80;37.90;;;;;;5057453;28;20029;-83
2021/09/30 08:42:55;;;;;;;9.65;4.47;;;25.80;38.10;;;;;;5040073;28;20091;-84
2021/09/30 08:45:21;;;;;;;7.85;4.82;;;25.80;37.90;;;;;;5055414;28;20478;-84
2021/09/30 08:48:07;;;;;;;7.07;3.75;;;25.80;37.70;;;;;;5059665;28;20482;-83
2021/09/30 08:50:41;;;;;;;5.53;3.88;;;25.90;37.70;;;;;;5059952;28;20033;-83
2021/09/30 08:53:12;;;;;;;5.45;3.67;;;25.70;37.00;;;;;;5060182;28;20025;-83
2021/09/30 08:55:38;;;;;;;6.72;3.90;;;25.20;36.70;;;;;;5059171;28;20040;-77
2021/09/30 08:58:06;;;;;;;7.72;3.90;;;24.80;37.60;;;;;;5077674;28;20060;-85
2021/09/30 09:00:33;;;;;;;7.72;4.43;;;24.70;38.10;;;;;;5055862;28;20374;-83
2021/09/30 09:02:59;;;;;;;6.50;3.88;;;24.80;38.20;;;;;;5073376;28;20082;-84
2021/09/30 09:05:25;;;;;;;8.55;4.80;;;25.00;37.50;;;;;;5055193;28;20028;-87
2021/09/30 09:08:11;;;;;;;8.68;4.72;;;25.10;37.70;;;;;;5073380;28;20118;-83
2021/09/30 09:10:42;;;;;;;8.93;4.00;;;24.80;37.50;;;;;;5055504;28;20128;-84
2021/09/30 09:13:13;;;;;;;10.13;4.97;;;24.70;37.60;;;;;;5055572;28;20467;-84
2021/09/30 09:15:43;;;;;;;6.63;3.95;;;25.00;38.10;;;;;;5073340;28;20028;-83
2021/09/30 09:18:24;;;;;;;7.93;3.88;;;25.20;37.40;;;;;;5055361;28;20028;-84
2021/09/30 09:21:15;;;;;;;6.88;3.72;;;25.30;37.40;;;;;;5055557;28;20029;-83
2021/09/30 09:23:58;;;;;;;6.28;3.75;;;25.30;36.80;;;;;;5055699;28;20487;-83
2021/09/30 09:26:40;;;;;;;7.97;3.47;;;25.10;36.80;;;;;;5054071;28;20474;-83
2021/09/30 09:29:07;;;;;;;5.40;3.42;;;24.80;36.30;;;;;;5055005;28;20025;-81
2021/09/30 09:31:44;;;;;;;5.97;3.58;;;24.50;36.50;;;;;;5076439;28;20028;-83
2021/09/30 09:34:32;;;;;;;7.68;3.22;;;24.20;37.20;;;;;;5058803;28;20040;-84
2021/09/30 09:37:19;;;;;;;7.63;3.42;;;24.30;37.30;;;;;;5059053;28;20025;-83
2021/09/30 09:39:45;;;;;;;4.53;3.42;;;24.30;37.00;;;;;;5076336;28;20027;-86
2021/09/30 09:42:17;;;;;;;9.93;3.60;;;24.30;36.70;;;;;;5076665;28;20021;-83
2021/09/30 09:45:00;;;;;;;6.65;3.60;;;24.10;37.00;;;;;;5076879;28;20068;-82
2021/09/30 09:47:35;;;;;;;7.85;3.65;;;23.90;37.20;;;;;;5058852;28;20403;-83
2021/09/30 09:50:19;;;;;;;4.45;3.35;;;24.10;37.60;;;;;;5058737;28;20032;-83
2021/09/30 09:52:57;;;;;;;6.30;3.60;;;24.00;36.90;;;;;;5058434;28;20071;-86
2021/09/30 09:55:35;;;;;;;4.93;3.35;;;23.80;37.30;;;;;;5058842;28;20497;-84
2021/09/30 09:58:03;;;;;;;6.13;3.90;;;23.80;37.20;;;;;;5058579;28;20024;-83
2021/09/30 10:00:35;;;;;;;6.43;4.22;;;23.70;37.10;;;;;;5075939;28;20382;-83
2021/09/30 10:03:13;;;;;;;7.63;4.10;;;23.50;37.50;;;;;;5058961;28;20489;-83
2021/09/30 10:05:40;;;;;;;7.68;4.95;;;23.40;38.20;;;;;;5058622;28;20020;-83
2021/09/30 10:08:07;;;;;;;6.88;4.03;;;23.60;38.00;;;;;;5055124;28;20128;-83
2021/09/30 10:10:34;;;;;;;10.40;4.28;;;23.60;38.10;;;;;;5056386;28;20086;-82
2021/09/30 10:13:00;;;;;;;6.75;3.58;;;23.70;38.30;;;;;;5054923;28;20459;-83
2021/09/30 10:15:27;;;;;;;5.63;3.80;;;23.80;37.40;;;;;;5059036;28;20035;-83
2021/09/30 10:17:53;;;;;;;7.40;3.50;;;23.80;37.20;;;;;;5075986;28;20203;-84
2021/09/30 10:20:19;;;;;;;9.63;4.10;;;23.80;37.20;;;;;;5077345;28;20024;-82
2021/09/30 10:22:54;;;;;;;5.78;3.90;;;23.80;36.90;;;;;;5077132;28;20024;-84
2021/09/30 10:25:21;;;;;;;5.65;3.95;;;23.60;37.10;;;;;;5075978;28;20033;-83
2021/09/30 10:27:58;;;;;;;5.45;3.88;;;23.60;37.70;;;;;;5074577;28;20540;-79
2021/09/30 10:30:35;;;;;;;6.72;4.68;;;23.60;37.40;;;;;;5075229;28;20033;-83
2021/09/30 10:33:03;;;;;;;7.38;4.15;;;23.90;37.80;;;;;;5077652;28;20033;-83
2021/09/30 10:35:35;;;;;;;7.20;4.40;;;23.90;37.50;;;;;;5076925;28;20033;-81
2021/09/30 10:38:20;;;;;;;9.35;4.55;;;23.80;37.60;;;;;;5080800;28;20035;-82
2021/09/30 10:41:07;;;;;;;6.90;4.40;;;24.00;38.00;;;;;;5078850;28;20025;-83
2021/09/30 10:43:35;;;;;;;5.60;3.83;;;24.10;37.40;;;;;;5066885;28;20045;-82
2021/09/30 10:46:01;;;;;;;7.88;4.25;;;24.20;37.50;;;;;;5082702;28;20023;-83
2021/09/30 10:48:27;;;;;;;8.55;4.57;;;24.30;37.60;;;;;;5099487;28;20021;-82
2021/09/30 10:50:57;;;;;;;11.43;8.32;;;24.30;37.40;;;;;;5083333;28;20230;-81
2021/09/30 10:53:45;;;;;;;7.63;5.22;;;24.30;36.80;;;;;;5079843;28;20410;-83
2021/09/30 10:56:49;;;;;;;7.68;4.88;;;24.30;36.60;;;;;;5076309;28;20043;-82
2021/09/30 10:59:19;;;;;;;12.10;4.78;;;24.30;37.00;;;;;;5074116;28;20432;-82
2021/09/30 11:01:47;;;;;;;8.05;4.75;;;24.30;37.00;;;;;;5074360;28;20020;-80
2021/09/30 11:04:18;;;;;;;8.48;4.10;;;24.30;37.00;;;;;;5075350;28;20089;-82
2021/09/30 11:07:05;;;;;;;10.20;4.82;;;24.10;36.40;;;;;;5049690;28;20056;-83
2021/09/30 11:09:31;;;;;;;8.00;4.10;;;23.90;36.60;;;;;;5033890;28;20033;-82
2021/09/30 11:12:12;;;;;;;10.57;5.25;;;23.50;36.90;;;;;;5033557;28;20397;-82
2021/09/30 11:14:57;;;;;;;7.07;4.30;;;23.50;37.50;;;;;;5033626;28;20090;-82
2021/09/30 11:17:40;;;;;;;11.73;4.70;;;23.40;37.30;;;;;;5035307;28;20443;-82
2021/09/30 11:20:32;;;;;;;12.50;4.55;;;23.60;37.80;;;;;;5034772;28;20037;-83
2021/09/30 11:22:58;;;;;;;6.10;4.00;;;23.70;37.20;;;;;;5033486;28;20072;-82
2021/09/30 11:26:02;;;;;;;8.98;4.50;;;23.60;37.10;;;;;;5033619;28;20033;-83
2021/09/30 11:28:27;;;;;;;7.50;4.50;;;23.30;37.20;;;;;;5033177;28;20057;-83
2021/09/30 11:31:21;;;;;;;6.93;4.25;;;23.30;37.40;;;;;;5035039;28;20107;-82
2021/09/30 11:33:48;;;;;;;5.93;3.90;;;23.10;37.20;;;;;;5033429;28;20033;-81
2021/09/30 11:36:13;;;;;;;7.13;4.35;;;22.60;37.50;;;;;;5033288;28;20033;-83
2021/09/30 11:38:39;;;;;;;9.05;4.90;;;22.60;38.00;;;;;;5034201;28;20365;-84
2021/09/30 11:41:06;;;;;;;8.13;4.18;;;22.80;37.90;;;;;;5034421;28;20021;-84
2021/09/30 11:43:32;;;;;;;8.18;5.57;;;22.60;37.70;;;;;;5048567;28;20116;-79
2021/09/30 11:45:57;;;;;;;9.60;4.68;;;22.60;38.30;;;;;;5053363;28;20059;-81
2021/09/30 11:48:23;;;;;;;7.80;4.50;;;22.80;38.20;;;;;;5052874;28;20514;-80
2021/09/30 11:50:58;;;;;;;8.57;4.13;;;22.90;38.20;;;;;;5054285;28;20025;-79
2021/09/30 11:53:23;;;;;;;8.05;4.25;;;22.90;37.70;;;;;;5052708;28;20033;-82
2021/09/30 11:55:51;;;;;;;7.72;4.78;;;22.50;37.70;;;;;;5052794;28;20048;-79
2021/09/30 11:58:17;;;;;;;6.95;4.13;;;22.10;38.30;;;;;;5054420;28;20025;-80
2021/09/30 12:00:47;;;;;;;14.43;8.73;;;21.70;38.80;;;;;;5052960;28;20483;-81
2021/09/30 12:03:12;;;;;;;11.50;6.93;;;21.40;39.70;;;;;;5052777;28;20483;-80
2021/09/30 12:05:39;;;;;;;7.28;5.03;;;21.20;39.90;;;;;;5051763;28;20135;-80
2021/09/30 12:08:07;;;;;;;8.65;4.97;;;20.80;40.10;;;;;;5053033;28;20070;-83
2021/09/30 12:10:36;;;;;;;12.15;5.03;;;20.70;40.60;;;;;;5052766;28;20135;-80
2021/09/30 12:13:19;;;;;;;9.90;5.28;;;20.40;41.30;;;;;;5052602;28;20029;-80
2021/09/30 12:15:46;;;;;;;5.95;4.18;;;20.10;41.40;;;;;;5052878;28;20433;-83
2021/09/30 12:18:21;;;;;;;6.88;3.95;;;19.80;41.50;;;;;;5053632;28;20052;-80
2021/09/30 12:20:53;;;;;;;9.48;4.32;;;19.30;41.70;;;;;;5056290;28;20083;-84
2021/09/30 12:23:19;;;;;;;9.73;4.63;;;18.90;42.40;;;;;;5054049;28;20025;-80
2021/09/30 12:25:45;;;;;;;9.23;4.57;;;18.40;43.20;;;;;;5056090;28;20387;-82
2021/09/30 12:28:11;;;;;;;8.07;5.18;;;18.00;43.60;;;;;;5056042;28;20025;-82
2021/09/30 12:30:39;;;;;;;9.75;4.97;;;17.60;44.40;;;;;;5057760;28;20033;-79
2021/09/30 12:33:05;;;;;;;13.85;6.82;;;17.20;45.00;;;;;;5040689;28;20037;-81
2021/09/30 12:35:36;;;;;;;7.47;5.63;;;16.90;45.90;;;;;;5039348;28;20082;-81
2021/09/30 12:38:05;;;;;;;12.40;5.90;;;16.80;46.60;;;;;;5028793;28;20038;-81
2021/09/30 12:40:34;;;;;;;10.07;5.80;;;16.70;47.20;;;;;;5040335;28;20380;-80
2021/09/30 12:43:10;;;;;;;11.05;4.90;;;16.60;47.50;;;;;;5036987;28;20064;-82
2021/09/30 12:45:57;;;;;;;6.88;5.10;;;16.50;47.00;;;;;;5033784;28;20467;-78
2021/09/30 12:48:24;;;;;;;9.52;5.88;;;16.40;47.30;;;;;;5031219;28;20029;-79
2021/09/30 12:51:02;;;;;;;7.55;5.55;;;16.30;47.40;;;;;;5032422;28;20018;-78
2021/09/30 12:53:29;;;;;;;7.63;5.28;;;16.30;47.50;;;;;;5031856;28;20045;-79
2021/09/30 12:56:09;;;;;;;8.80;5.43;;;16.20;47.70;;;;;;5045282;28;20040;-83
2021/09/30 12:58:36;;;;;;;6.68;4.90;;;16.20;48.60;;;;;;5032068;28;20029;-80
2021/09/30 13:01:27;;;;;;;8.45;5.38;;;16.30;48.30;;;;;;5033768;28;20027;-81
2021/09/30 13:04:05;;;;;;;11.02;5.90;;;16.10;48.50;;;;;;5032073;28;20051;-80
2021/09/30 13:06:31;;;;;;;11.43;5.43;;;16.00;49.10;;;;;;5050268;28;20057;-77
2021/09/30 13:08:57;;;;;;;9.38;5.07;;;15.90;49.80;;;;;;5058665;28;20048;-78
2021/09/30 13:11:26;;;;;;;7.28;4.88;;;15.80;49.40;;;;;;5076415;28;20051;-76
2021/09/30 13:14:24;;;;;;;10.23;4.75;;;15.80;49.60;;;;;;5056005;28;20390;-76
2021/09/30 13:16:53;;;;;;;10.18;4.75;;;15.70;49.60;;;;;;5074345;28;20032;-80
2021/09/30 13:19:21;;;;;;;7.93;4.57;;;15.60;49.20;;;;;;5059352;28;20036;-82
2021/09/30 13:22:04;;;;;;;7.03;4.68;;;15.50;49.20;;;;;;5076822;28;20028;-81
2021/09/30 13:24:34;;;;;;;9.88;4.55;;;15.40;49.10;;;;;;5059208;28;20047;-82
2021/09/30 13:26:59;;;;;;;7.78;4.15;;;15.30;49.10;;;;;;5058777;28;20033;-82
2021/09/30 13:29:25;;;;;;;6.97;4.03;;;15.30;49.10;;;;;;5076531;28;20020;-83
2021/09/30 13:31:51;;;;;;;7.55;4.32;;;15.20;49.10;;;;;;5076899;28;20035;-82
2021/09/30 13:34:19;;;;;;;8.90;4.32;;;15.20;49.30;;;;;;5059111;28;20034;-82
2021/09/30 13:36:45;;;;;;;7.22;4.22;;;15.20;49.70;;;;;;5076967;28;20067;-83
2021/09/30 13:39:10;;;;;;;12.52;4.55;;;15.10;49.70;;;;;;5059040;28;20025;-83
2021/09/30 13:41:36;;;;;;;11.82;4.72;;;15.10;49.80;;;;;;5058517;28;20502;-82
2021/09/30 13:44:03;;;;;;;10.32;4.70;;;15.00;50.20;;;;;;5068835;28;20127;-81
2021/09/30 13:46:29;;;;;;;6.00;3.90;;;15.00;50.40;;;;;;5077607;28;20077;-79
2021/09/30 13:48:54;;;;;;;6.53;3.80;;;15.00;50.40;;;;;;5085345;28;20025;-81
2021/09/30 13:51:20;;;;;;;7.78;4.00;;;14.90;50.00;;;;;;5058282;28;20067;-81
2021/09/30 13:53:46;;;;;;;7.10;4.18;;;14.90;50.20;;;;;;5058297;28;20128;-81
2021/09/30 13:56:11;;;;;;;8.35;4.15;;;14.80;50.00;;;;;;5077787;28;20028;-80
2021/09/30 13:58:37;;;;;;;7.05;3.90;;;14.80;50.30;;;;;;5058179;28;20115;-76
2021/09/30 14:01:03;;;;;;;7.05;4.15;;;14.70;50.60;;;;;;5058230;28;20143;-78
2021/09/30 14:03:28;;;;;;;6.90;4.10;;;14.70;50.80;;;;;;5077098;28;20020;-85
2021/09/30 14:05:54;;;;;;;7.57;4.28;;;14.60;51.00;;;;;;5076095;28;20078;-84
2021/09/30 14:08:20;;;;;;;7.53;4.20;;;14.60;50.60;;;;;;5079865;28;20024;-85
2021/09/30 14:10:47;;;;;;;8.23;4.22;;;14.60;50.70;;;;;;5086562;28;20020;-84
2021/09/30 14:13:16;;;;;;;11.60;4.53;;;14.60;51.00;;;;;;5087941;28;20020;-83
2021/09/30 14:15:43;;;;;;;11.98;4.93;;;14.50;51.20;;;;;;5081552;28;20024;-83
2021/09/30 14:18:09;;;;;;;9.35;3.70;;;14.60;51.50;;;;;;5082291;28;20028;-83
2021/09/30 14:20:36;;;;;;;10.15;6.07;;;14.50;51.40;;;;;;5084221;28;20029;-82
2021/09/30 14:23:02;;;;;;;13.73;6.57;;;14.50;51.70;;;;;;5087002;28;20031;-83
2021/09/30 14:25:28;;;;;;;13.70;5.35;;;14.50;52.10;;;;;;5105314;28;20114;-84
2021/09/30 14:27:54;;;;;;;8.82;5.28;;;14.40;52.20;;;;;;5085016;28;20116;-82
2021/09/30 14:30:20;;;;;;;8.77;4.30;;;14.40;52.30;;;;;;5067402;28;20028;-85
2021/09/30 14:32:46;;;;;;;10.85;4.28;;;14.40;52.40;;;;;;5058929;28;20036;-82
2021/09/30 14:35:14;;;;;;;13.98;4.63;;;14.30;52.50;;;;;;5075661;28;20070;-85
2021/09/30 14:37:39;;;;;;;10.65;4.13;;;14.30;52.90;;;;;;5075674;28;20056;-83
2021/09/30 14:40:06;;;;;;;10.77;4.63;;;14.20;53.10;;;;;;5057433;28;20106;-83
2021/09/30 14:42:31;;;;;;;8.32;3.88;;;14.20;53.40;;;;;;5057945;28;20035;-81
2021/09/30 14:44:58;;;;;;;9.30;4.40;;;14.10;53.90;;;;;;5075109;28;20028;-82
2021/09/30 14:47:24;;;;;;;10.07;4.95;;;14.10;54.40;;;;;;5077162;28;20375;-83
2021/09/30 14:49:50;;;;;;;10.57;5.18;;;14.00;54.50;;;;;;5077765;28;20028;-81
2021/09/30 14:52:17;;;;;;;12.23;5.70;;;14.00;54.70;;;;;;5095603;28;20107;-81
2021/09/30 14:54:43;;;;;;;13.23;6.05;;;14.00;54.90;;;;;;5077637;28;20028;-83
2021/09/30 14:57:09;;;;;;;13.43;6.47;;;13.90;54.80;;;;;;5095589;28;20077;-77
2021/09/30 14:59:35;;;;;;;13.90;6.50;;;13.90;55.10;;;;;;5078024;28;20085;-83
2021/09/30 15:02:02;;;;;;;19.50;6.70;;;13.80;55.20;;;;;;5077367;28;20363;-80
2021/09/30 15:04:28;;;;;;;14.50;6.13;;;13.80;55.50;;;;;;5075535;28;20069;-81
2021/09/30 15:06:53;;;;;;;11.20;4.95;;;13.70;55.40;;;;;;5077572;28;20056;-82
2021/09/30 15:09:19;;;;;;;16.75;6.47;;;13.70;55.50;;;;;;5077120;28;20039;-82
2021/09/30 15:11:45;;;;;;;14.73;5.70;;;13.60;55.60;;;;;;5078579;28;20031;-80
2021/09/30 15:14:11;;;;;;;13.65;6.25;;;13.60;55.80;;;;;;5077446;28;20119;-81
2021/09/30 15:16:41;;;;;;;17.65;6.68;;;13.50;55.90;;;;;;5077945;28;20109;-82
2021/09/30 15:19:16;;;;;;;15.80;6.35;;;13.40;56.10;;;;;;5077559;28;20020;-80
2021/09/30 15:21:43;;;;;;;14.75;6.97;;;13.40;56.40;;;;;;5095550;28;20028;-82
2021/09/30 15:24:14;;;;;;;12.85;6.85;;;13.30;56.60;;;;;;5094681;28;20031;-82
2021/09/30 15:26:40;;;;;;;14.60;7.10;;;13.30;56.70;;;;;;5077720;28;20032;-84
2021/09/30 15:29:06;;;;;;;22.30;8.70;;;13.30;57.00;;;;;;5079009;28;20023;-82
2021/09/30 15:31:32;;;;;;;21.95;10.85;;;13.20;57.30;;;;;;5095717;28;20027;-82
2021/09/30 15:33:58;;;;;;;25.48;18.40;;;13.10;57.50;;;;;;5095427;28;20382;-82
2021/09/30 15:36:24;;;;;;;16.20;11.20;;;13.10;57.70;;;;;;5077205;28;20054;-83
2021/09/30 15:38:50;;;;;;;19.00;10.90;;;13.00;58.00;;;;;;5077416;28;20031;-82
2021/09/30 15:41:16;;;;;;;23.70;12.63;;;12.90;58.30;;;;;;5079463;28;20118;-82
2021/09/30 15:43:42;;;;;;;27.10;13.85;;;12.90;58.40;;;;;;5077717;28;20052;-81
2021/09/30 15:46:08;;;;;;;21.85;8.32;;;12.90;58.60;;;;;;5094457;28;20595;-78
2021/09/30 15:48:34;;;;;;;22.80;9.45;;;12.80;58.60;;;;;;5099655;28;20024;-82
2021/09/30 15:51:00;;;;;;;32.35;19.10;;;12.80;58.90;;;;;;5082186;28;20115;-84